sensor_id;sensor_type;location;lat;lon;timestamp;P1;durP1;ratioP1;P2;durP2;ratioP2
3718;SDS011;1875;52.492;6.860;2023-03-01T00:01:22;9.47;;;5.20;;
3718;SDS011;1875;52.492;6.860;2023-03-01T00:03:50;8.97;;;4.50;;
3718;SDS011;1875;52.492;6.860;2023-03-01T00:06:18;9.73;;;5.77;;
3718;SDS011;1875;52.492;6.860;2023-03-01T00:08:48;9.60;;;5.10;;
3718;SDS011;1875;52.492;6.860;2023-03-01T00:11:17;7.60;;;4.80;;
3718;SDS011;1875;52.492;6.860;2023-03-01T00:13:47;7.80;;;5.30;;
3718;SDS011;1875;52.492;6.860;2023-03-01T00:16:16;8.80;;;5.07;;
3718;SDS011;1875;52.492;6.860;2023-03-01T00:18:45;8.13;;;4.67;;
3718;SDS011;1875;52.492;6.860;2023-03-01T00:21:13;7.77;;;4.53;;
3718;SDS011;1875;52.492;6.860;2023-03-01T00:23:41;9.60;;;5.30;;
3718;SDS011;1875;52.492;6.860;2023-03-01T00:26:12;7.27;;;4.63;;
3718;SDS011;1875;52.492;6.860;2023-03-01T00:28:40;7.73;;;5.00;;
3718;SDS011;1875;52.492;6.860;2023-03-01T00:31:10;9.87;;;4.73;;
3718;SDS011;1875;52.492;6.860;2023-03-01T00:33:38;10.57;;;5.00;;
3718;SDS011;1875;52.492;6.860;2023-03-01T00:36:06;6.37;;;4.40;;
3718;SDS011;1875;52.492;6.860;2023-03-01T00:38:35;6.77;;;4.90;;
3718;SDS011;1875;52.492;6.860;2023-03-01T00:41:04;6.87;;;4.93;;
3718;SDS011;1875;52.492;6.860;2023-03-01T00:43:33;8.17;;;4.80;;
3718;SDS011;1875;52.492;6.860;2023-03-01T00:46:03;7.27;;;4.97;;
3718;SDS011;1875;52.492;6.860;2023-03-01T00:48:32;7.37;;;5.10;;
3718;SDS011;1875;52.492;6.860;2023-03-01T00:51:03;8.77;;;5.23;;
3718;SDS011;1875;52.492;6.860;2023-03-01T00:53:32;9.70;;;5.20;;
3718;SDS011;1875;52.492;6.860;2023-03-01T00:56:00;7.83;;;4.97;;
3718;SDS011;1875;52.492;6.860;2023-03-01T00:58:28;6.10;;;4.37;;
3718;SDS011;1875;52.492;6.860;2023-03-01T01:00:57;12.00;;;5.97;;
3718;SDS011;1875;52.492;6.860;2023-03-01T01:03:25;8.97;;;5.20;;
3718;SDS011;1875;52.492;6.860;2023-03-01T01:05:53;6.93;;;4.57;;
3718;SDS011;1875;52.492;6.860;2023-03-01T01:08:21;11.93;;;6.20;;
3718;SDS011;1875;52.492;6.860;2023-03-01T01:10:48;10.00;;;5.50;;
3718;SDS011;1875;52.492;6.860;2023-03-01T01:13:16;14.30;;;5.93;;
3718;SDS011;1875;52.492;6.860;2023-03-01T01:15:44;14.43;;;7.20;;
3718;SDS011;1875;52.492;6.860;2023-03-01T01:18:13;13.70;;;6.80;;
3718;SDS011;1875;52.492;6.860;2023-03-01T01:20:41;13.87;;;7.20;;
3718;SDS011;1875;52.492;6.860;2023-03-01T01:23:08;13.17;;;6.10;;
3718;SDS011;1875;52.492;6.860;2023-03-01T01:25:36;10.40;;;5.70;;
3718;SDS011;1875;52.492;6.860;2023-03-01T01:28:04;11.90;;;6.27;;
3718;SDS011;1875;52.492;6.860;2023-03-01T01:30:31;9.97;;;6.17;;
3718;SDS011;1875;52.492;6.860;2023-03-01T01:32:59;10.53;;;5.80;;
3718;SDS011;1875;52.492;6.860;2023-03-01T01:35:28;9.90;;;6.20;;
3718;SDS011;1875;52.492;6.860;2023-03-01T01:37:56;10.17;;;5.87;;
3718;SDS011;1875;52.492;6.860;2023-03-01T01:40:24;10.30;;;5.87;;
3718;SDS011;1875;52.492;6.860;2023-03-01T01:42:51;13.43;;;6.27;;
3718;SDS011;1875;52.492;6.860;2023-03-01T01:45:29;9.07;;;5.77;;
3718;SDS011;1875;52.492;6.860;2023-03-01T01:48:00;9.97;;;5.90;;
3718;SDS011;1875;52.492;6.860;2023-03-01T01:50:31;9.43;;;6.37;;
3718;SDS011;1875;52.492;6.860;2023-03-01T01:53:05;9.10;;;5.97;;
3718;SDS011;1875;52.492;6.860;2023-03-01T01:55:34;11.03;;;6.03;;
3718;SDS011;1875;52.492;6.860;2023-03-01T01:58:04;7.40;;;5.40;;
3718;SDS011;1875;52.492;6.860;2023-03-01T02:00:33;9.57;;;6.27;;
3718;SDS011;1875;52.492;6.860;2023-03-01T02:03:01;13.30;;;6.07;;
3718;SDS011;1875;52.492;6.860;2023-03-01T02:05:34;10.67;;;5.90;;
3718;SDS011;1875;52.492;6.860;2023-03-01T02:08:06;10.50;;;5.40;;
3718;SDS011;1875;52.492;6.860;2023-03-01T02:10:34;9.20;;;5.23;;
3718;SDS011;1875;52.492;6.860;2023-03-01T02:13:02;11.43;;;6.27;;
3718;SDS011;1875;52.492;6.860;2023-03-01T02:15:31;8.53;;;5.43;;
3718;SDS011;1875;52.492;6.860;2023-03-01T02:17:59;8.33;;;5.47;;
3718;SDS011;1875;52.492;6.860;2023-03-01T02:20:30;7.80;;;5.13;;
3718;SDS011;1875;52.492;6.860;2023-03-01T02:23:02;9.97;;;5.90;;
3718;SDS011;1875;52.492;6.860;2023-03-01T02:25:33;10.53;;;6.10;;
3718;SDS011;1875;52.492;6.860;2023-03-01T02:28:05;8.90;;;6.00;;
3718;SDS011;1875;52.492;6.860;2023-03-01T02:30:39;9.07;;;5.60;;
3718;SDS011;1875;52.492;6.860;2023-03-01T02:33:27;10.07;;;5.63;;
3718;SDS011;1875;52.492;6.860;2023-03-01T02:35:54;10.07;;;5.80;;
3718;SDS011;1875;52.492;6.860;2023-03-01T02:38:23;11.63;;;5.90;;
3718;SDS011;1875;52.492;6.860;2023-03-01T02:40:51;8.53;;;5.87;;
3718;SDS011;1875;52.492;6.860;2023-03-01T02:43:19;8.53;;;6.23;;
3718;SDS011;1875;52.492;6.860;2023-03-01T02:45:50;7.70;;;5.00;;
3718;SDS011;1875;52.492;6.860;2023-03-01T02:48:19;8.03;;;5.80;;
3718;SDS011;1875;52.492;6.860;2023-03-01T02:50:52;8.70;;;6.00;;
3718;SDS011;1875;52.492;6.860;2023-03-01T02:53:32;7.70;;;5.33;;
3718;SDS011;1875;52.492;6.860;2023-03-01T02:56:03;8.50;;;5.23;;
3718;SDS011;1875;52.492;6.860;2023-03-01T02:58:31;7.83;;;5.50;;
3718;SDS011;1875;52.492;6.860;2023-03-01T03:01:08;9.37;;;5.40;;
3718;SDS011;1875;52.492;6.860;2023-03-01T03:03:36;6.97;;;5.07;;
3718;SDS011;1875;52.492;6.860;2023-03-01T03:06:04;9.83;;;5.47;;
3718;SDS011;1875;52.492;6.860;2023-03-01T03:08:31;10.97;;;5.40;;
3718;SDS011;1875;52.492;6.860;2023-03-01T03:10:59;9.20;;;5.20;;
3718;SDS011;1875;52.492;6.860;2023-03-01T03:13:27;8.90;;;5.47;;
3718;SDS011;1875;52.492;6.860;2023-03-01T03:15:55;10.20;;;5.70;;
3718;SDS011;1875;52.492;6.860;2023-03-01T03:18:25;8.73;;;5.77;;
3718;SDS011;1875;52.492;6.860;2023-03-01T03:20:53;8.73;;;5.53;;
3718;SDS011;1875;52.492;6.860;2023-03-01T03:23:21;10.53;;;5.60;;
3718;SDS011;1875;52.492;6.860;2023-03-01T03:25:49;11.13;;;5.70;;
3718;SDS011;1875;52.492;6.860;2023-03-01T03:28:17;8.13;;;5.87;;
3718;SDS011;1875;52.492;6.860;2023-03-01T03:30:45;8.97;;;5.87;;
3718;SDS011;1875;52.492;6.860;2023-03-01T03:33:14;8.47;;;5.07;;
3718;SDS011;1875;52.492;6.860;2023-03-01T03:35:43;6.73;;;5.53;;
3718;SDS011;1875;52.492;6.860;2023-03-01T03:38:12;10.67;;;6.40;;
3718;SDS011;1875;52.492;6.860;2023-03-01T03:40:44;7.90;;;5.27;;
3718;SDS011;1875;52.492;6.860;2023-03-01T03:43:14;9.23;;;6.03;;
3718;SDS011;1875;52.492;6.860;2023-03-01T03:45:43;13.27;;;6.00;;
3718;SDS011;1875;52.492;6.860;2023-03-01T03:48:11;14.10;;;7.30;;
3718;SDS011;1875;52.492;6.860;2023-03-01T03:50:39;8.53;;;5.67;;
3718;SDS011;1875;52.492;6.860;2023-03-01T03:53:09;10.10;;;6.07;;
3718;SDS011;1875;52.492;6.860;2023-03-01T03:55:38;9.63;;;6.87;;
3718;SDS011;1875;52.492;6.860;2023-03-01T03:58:06;9.97;;;6.77;;
3718;SDS011;1875;52.492;6.860;2023-03-01T04:00:37;11.63;;;6.70;;
3718;SDS011;1875;52.492;6.860;2023-03-01T04:03:06;16.83;;;7.47;;
3718;SDS011;1875;52.492;6.860;2023-03-01T04:05:35;9.60;;;6.30;;
3718;SDS011;1875;52.492;6.860;2023-03-01T04:08:03;17.77;;;6.93;;
3718;SDS011;1875;52.492;6.860;2023-03-01T04:10:35;13.47;;;7.20;;
3718;SDS011;1875;52.492;6.860;2023-03-01T04:13:04;10.97;;;7.37;;
3718;SDS011;1875;52.492;6.860;2023-03-01T04:15:33;10.17;;;6.60;;
3718;SDS011;1875;52.492;6.860;2023-03-01T04:18:01;13.77;;;7.27;;
3718;SDS011;1875;52.492;6.860;2023-03-01T04:20:30;11.90;;;7.00;;
3718;SDS011;1875;52.492;6.860;2023-03-01T04:23:01;12.17;;;6.73;;
3718;SDS011;1875;52.492;6.860;2023-03-01T04:25:38;15.70;;;7.73;;
3718;SDS011;1875;52.492;6.860;2023-03-01T04:28:07;13.03;;;7.57;;
3718;SDS011;1875;52.492;6.860;2023-03-01T04:30:36;11.03;;;7.27;;
3718;SDS011;1875;52.492;6.860;2023-03-01T04:33:04;14.80;;;7.50;;
3718;SDS011;1875;52.492;6.860;2023-03-01T04:35:33;12.17;;;7.17;;
3718;SDS011;1875;52.492;6.860;2023-03-01T04:38:02;11.30;;;6.60;;
3718;SDS011;1875;52.492;6.860;2023-03-01T04:40:30;9.13;;;6.40;;
3718;SDS011;1875;52.492;6.860;2023-03-01T04:42:59;18.83;;;8.73;;
3718;SDS011;1875;52.492;6.860;2023-03-01T04:45:27;15.53;;;9.00;;
3718;SDS011;1875;52.492;6.860;2023-03-01T04:47:55;13.87;;;8.17;;
3718;SDS011;1875;52.492;6.860;2023-03-01T04:50:24;27.77;;;13.63;;
3718;SDS011;1875;52.492;6.860;2023-03-01T04:52:52;39.60;;;16.00;;
3718;SDS011;1875;52.492;6.860;2023-03-01T04:55:19;38.07;;;17.33;;
3718;SDS011;1875;52.492;6.860;2023-03-01T04:57:47;31.03;;;14.50;;
3718;SDS011;1875;52.492;6.860;2023-03-01T05:02:49;16.13;;;9.37;;
3718;SDS011;1875;52.492;6.860;2023-03-01T05:05:20;18.33;;;10.10;;
3718;SDS011;1875;52.492;6.860;2023-03-01T05:07:55;16.67;;;9.87;;
3718;SDS011;1875;52.492;6.860;2023-03-01T05:10:24;14.57;;;9.77;;
3718;SDS011;1875;52.492;6.860;2023-03-01T05:12:52;22.90;;;10.33;;
3718;SDS011;1875;52.492;6.860;2023-03-01T05:15:21;16.37;;;10.60;;
3718;SDS011;1875;52.492;6.860;2023-03-01T05:17:52;17.60;;;10.10;;
3718;SDS011;1875;52.492;6.860;2023-03-01T05:20:20;18.57;;;10.17;;
3718;SDS011;1875;52.492;6.860;2023-03-01T05:22:49;15.47;;;9.60;;
3718;SDS011;1875;52.492;6.860;2023-03-01T05:25:17;21.07;;;10.03;;
3718;SDS011;1875;52.492;6.860;2023-03-01T05:27:47;13.80;;;9.73;;
3718;SDS011;1875;52.492;6.860;2023-03-01T05:30:15;12.60;;;8.57;;
3718;SDS011;1875;52.492;6.860;2023-03-01T05:32:46;16.87;;;9.43;;
3718;SDS011;1875;52.492;6.860;2023-03-01T05:35:15;16.10;;;9.93;;
3718;SDS011;1875;52.492;6.860;2023-03-01T05:37:45;17.43;;;9.73;;
3718;SDS011;1875;52.492;6.860;2023-03-01T05:40:15;19.67;;;10.23;;
3718;SDS011;1875;52.492;6.860;2023-03-01T05:42:43;16.47;;;9.73;;
3718;SDS011;1875;52.492;6.860;2023-03-01T05:45:12;16.73;;;10.93;;
3718;SDS011;1875;52.492;6.860;2023-03-01T05:47:40;17.17;;;9.97;;
3718;SDS011;1875;52.492;6.860;2023-03-01T05:50:12;15.70;;;9.30;;
3718;SDS011;1875;52.492;6.860;2023-03-01T05:52:46;16.00;;;9.73;;
3718;SDS011;1875;52.492;6.860;2023-03-01T05:55:15;21.83;;;11.33;;
3718;SDS011;1875;52.492;6.860;2023-03-01T05:57:43;18.20;;;10.57;;
3718;SDS011;1875;52.492;6.860;2023-03-01T06:00:11;19.30;;;10.73;;
3718;SDS011;1875;52.492;6.860;2023-03-01T06:02:41;17.27;;;10.43;;
3718;SDS011;1875;52.492;6.860;2023-03-01T06:05:09;19.70;;;11.60;;
3718;SDS011;1875;52.492;6.860;2023-03-01T06:07:40;24.03;;;12.03;;
3718;SDS011;1875;52.492;6.860;2023-03-01T06:10:08;35.77;;;13.53;;
3718;SDS011;1875;52.492;6.860;2023-03-01T06:12:37;32.80;;;14.07;;
3718;SDS011;1875;52.492;6.860;2023-03-01T06:15:06;24.67;;;11.73;;
3718;SDS011;1875;52.492;6.860;2023-03-01T06:17:36;24.80;;;12.40;;
3718;SDS011;1875;52.492;6.860;2023-03-01T06:20:05;18.83;;;11.00;;
3718;SDS011;1875;52.492;6.860;2023-03-01T06:22:36;23.00;;;12.33;;
3718;SDS011;1875;52.492;6.860;2023-03-01T06:25:06;51.70;;;17.53;;
3718;SDS011;1875;52.492;6.860;2023-03-01T06:27:34;36.40;;;14.60;;
3718;SDS011;1875;52.492;6.860;2023-03-01T06:30:02;42.20;;;15.23;;
3718;SDS011;1875;52.492;6.860;2023-03-01T06:32:30;43.50;;;15.77;;
3718;SDS011;1875;52.492;6.860;2023-03-01T06:34:58;33.80;;;14.37;;
3718;SDS011;1875;52.492;6.860;2023-03-01T06:37:26;20.30;;;10.07;;
3718;SDS011;1875;52.492;6.860;2023-03-01T06:39:53;32.47;;;13.07;;
3718;SDS011;1875;52.492;6.860;2023-03-01T06:42:22;36.63;;;13.83;;
3718;SDS011;1875;52.492;6.860;2023-03-01T06:44:50;27.77;;;12.73;;
3718;SDS011;1875;52.492;6.860;2023-03-01T06:47:18;20.50;;;10.93;;
3718;SDS011;1875;52.492;6.860;2023-03-01T06:49:46;16.63;;;9.77;;
3718;SDS011;1875;52.492;6.860;2023-03-01T06:52:13;17.23;;;10.13;;
3718;SDS011;1875;52.492;6.860;2023-03-01T06:54:41;18.53;;;11.00;;
3718;SDS011;1875;52.492;6.860;2023-03-01T06:57:09;19.90;;;10.03;;
3718;SDS011;1875;52.492;6.860;2023-03-01T06:59:38;19.47;;;10.87;;
3718;SDS011;1875;52.492;6.860;2023-03-01T07:02:05;20.37;;;12.27;;
3718;SDS011;1875;52.492;6.860;2023-03-01T07:04:33;28.40;;;13.03;;
3718;SDS011;1875;52.492;6.860;2023-03-01T07:07:01;39.57;;;15.37;;
3718;SDS011;1875;52.492;6.860;2023-03-01T07:09:28;45.83;;;16.03;;
3718;SDS011;1875;52.492;6.860;2023-03-01T07:11:56;46.40;;;14.57;;
3718;SDS011;1875;52.492;6.860;2023-03-01T07:14:24;51.63;;;15.87;;
3718;SDS011;1875;52.492;6.860;2023-03-01T07:16:54;57.00;;;16.67;;
3718;SDS011;1875;52.492;6.860;2023-03-01T07:19:22;31.23;;;11.67;;
3718;SDS011;1875;52.492;6.860;2023-03-01T07:21:50;28.23;;;12.17;;
3718;SDS011;1875;52.492;6.860;2023-03-01T07:24:17;21.70;;;11.33;;
3718;SDS011;1875;52.492;6.860;2023-03-01T07:26:47;25.50;;;12.20;;
3718;SDS011;1875;52.492;6.860;2023-03-01T07:29:15;45.47;;;14.33;;
3718;SDS011;1875;52.492;6.860;2023-03-01T07:31:44;48.90;;;16.23;;
3718;SDS011;1875;52.492;6.860;2023-03-01T07:34:13;31.17;;;12.53;;
3718;SDS011;1875;52.492;6.860;2023-03-01T07:36:40;31.77;;;12.63;;
3718;SDS011;1875;52.492;6.860;2023-03-01T07:39:09;32.43;;;12.83;;
3718;SDS011;1875;52.492;6.860;2023-03-01T07:41:37;23.93;;;11.10;;
3718;SDS011;1875;52.492;6.860;2023-03-01T07:44:05;20.13;;;10.50;;
3718;SDS011;1875;52.492;6.860;2023-03-01T07:46:33;17.40;;;10.40;;
3718;SDS011;1875;52.492;6.860;2023-03-01T07:49:01;13.23;;;8.57;;
3718;SDS011;1875;52.492;6.860;2023-03-01T07:51:31;13.30;;;8.50;;
3718;SDS011;1875;52.492;6.860;2023-03-01T07:53:58;15.70;;;8.17;;
3718;SDS011;1875;52.492;6.860;2023-03-01T07:56:26;13.37;;;7.13;;
3718;SDS011;1875;52.492;6.860;2023-03-01T07:58:54;12.90;;;7.67;;
3718;SDS011;1875;52.492;6.860;2023-03-01T08:01:22;15.70;;;9.20;;
3718;SDS011;1875;52.492;6.860;2023-03-01T08:03:50;12.43;;;7.43;;
3718;SDS011;1875;52.492;6.860;2023-03-01T08:06:18;12.13;;;7.57;;
3718;SDS011;1875;52.492;6.860;2023-03-01T08:08:47;11.10;;;6.23;;
3718;SDS011;1875;52.492;6.860;2023-03-01T08:11:15;11.57;;;7.07;;
3718;SDS011;1875;52.492;6.860;2023-03-01T08:13:43;12.13;;;6.60;;
3718;SDS011;1875;52.492;6.860;2023-03-01T08:16:11;10.17;;;6.27;;
3718;SDS011;1875;52.492;6.860;2023-03-01T08:18:41;10.63;;;7.30;;
3718;SDS011;1875;52.492;6.860;2023-03-01T08:21:10;7.57;;;6.13;;
3718;SDS011;1875;52.492;6.860;2023-03-01T08:23:39;10.57;;;7.27;;
3718;SDS011;1875;52.492;6.860;2023-03-01T08:26:10;12.40;;;7.70;;
3718;SDS011;1875;52.492;6.860;2023-03-01T08:28:39;10.30;;;6.37;;
3718;SDS011;1875;52.492;6.860;2023-03-01T08:31:13;9.83;;;6.03;;
3718;SDS011;1875;52.492;6.860;2023-03-01T08:33:43;7.53;;;4.70;;
3718;SDS011;1875;52.492;6.860;2023-03-01T08:36:11;10.80;;;5.73;;
3718;SDS011;1875;52.492;6.860;2023-03-01T08:38:39;13.03;;;6.57;;
3718;SDS011;1875;52.492;6.860;2023-03-01T08:41:06;9.27;;;5.93;;
3718;SDS011;1875;52.492;6.860;2023-03-01T08:43:35;10.57;;;6.30;;
3718;SDS011;1875;52.492;6.860;2023-03-01T08:46:03;11.10;;;6.57;;
3718;SDS011;1875;52.492;6.860;2023-03-01T08:48:31;10.47;;;6.07;;
3718;SDS011;1875;52.492;6.860;2023-03-01T08:51:06;10.90;;;6.00;;
3718;SDS011;1875;52.492;6.860;2023-03-01T08:53:34;9.70;;;6.53;;
3718;SDS011;1875;52.492;6.860;2023-03-01T08:56:02;12.37;;;5.97;;
3718;SDS011;1875;52.492;6.860;2023-03-01T08:58:30;13.23;;;6.07;;
3718;SDS011;1875;52.492;6.860;2023-03-01T09:00:59;9.13;;;5.53;;
3718;SDS011;1875;52.492;6.860;2023-03-01T09:03:27;8.83;;;5.90;;
3718;SDS011;1875;52.492;6.860;2023-03-01T09:05:59;8.80;;;5.40;;
3718;SDS011;1875;52.492;6.860;2023-03-01T09:08:28;13.60;;;5.63;;
3718;SDS011;1875;52.492;6.860;2023-03-01T09:10:55;10.30;;;5.90;;
3718;SDS011;1875;52.492;6.860;2023-03-01T09:13:23;12.23;;;8.47;;
3718;SDS011;1875;52.492;6.860;2023-03-01T09:15:51;10.73;;;5.90;;
3718;SDS011;1875;52.492;6.860;2023-03-01T09:18:21;11.13;;;6.30;;
3718;SDS011;1875;52.492;6.860;2023-03-01T09:20:48;12.80;;;5.93;;
3718;SDS011;1875;52.492;6.860;2023-03-01T09:23:16;8.57;;;5.67;;
3718;SDS011;1875;52.492;6.860;2023-03-01T09:25:43;12.37;;;5.70;;
3718;SDS011;1875;52.492;6.860;2023-03-01T09:28:11;12.07;;;5.03;;
3718;SDS011;1875;52.492;6.860;2023-03-01T09:30:57;10.10;;;5.60;;
3718;SDS011;1875;52.492;6.860;2023-03-01T09:33:26;11.47;;;5.13;;
3718;SDS011;1875;52.492;6.860;2023-03-01T09:35:57;7.50;;;5.90;;
3718;SDS011;1875;52.492;6.860;2023-03-01T09:38:25;8.50;;;4.93;;
3718;SDS011;1875;52.492;6.860;2023-03-01T09:40:53;11.13;;;6.23;;
3718;SDS011;1875;52.492;6.860;2023-03-01T09:43:23;8.53;;;5.30;;
3718;SDS011;1875;52.492;6.860;2023-03-01T09:45:53;10.53;;;5.37;;
3718;SDS011;1875;52.492;6.860;2023-03-01T09:48:23;9.53;;;6.30;;
3718;SDS011;1875;52.492;6.860;2023-03-01T09:50:54;8.70;;;5.60;;
3718;SDS011;1875;52.492;6.860;2023-03-01T09:53:25;8.07;;;4.73;;
3718;SDS011;1875;52.492;6.860;2023-03-01T09:55:55;6.73;;;4.00;;
3718;SDS011;1875;52.492;6.860;2023-03-01T09:58:31;6.57;;;4.40;;
3718;SDS011;1875;52.492;6.860;2023-03-01T10:01:10;12.93;;;4.33;;
3718;SDS011;1875;52.492;6.860;2023-03-01T10:03:51;9.57;;;4.23;;
3718;SDS011;1875;52.492;6.860;2023-03-01T10:06:27;4.80;;;3.37;;
3718;SDS011;1875;52.492;6.860;2023-03-01T10:09:02;6.83;;;4.50;;
3718;SDS011;1875;52.492;6.860;2023-03-01T10:11:35;5.53;;;4.23;;
3718;SDS011;1875;52.492;6.860;2023-03-01T10:14:07;8.73;;;4.40;;
3718;SDS011;1875;52.492;6.860;2023-03-01T10:16:43;7.37;;;4.60;;
3718;SDS011;1875;52.492;6.860;2023-03-01T10:19:17;6.87;;;4.43;;
3718;SDS011;1875;52.492;6.860;2023-03-01T10:21:51;5.50;;;3.90;;
3718;SDS011;1875;52.492;6.860;2023-03-01T10:24:20;6.27;;;3.83;;
3718;SDS011;1875;52.492;6.860;2023-03-01T10:26:51;5.93;;;4.23;;
3718;SDS011;1875;52.492;6.860;2023-03-01T10:29:23;9.77;;;5.50;;
3718;SDS011;1875;52.492;6.860;2023-03-01T10:31:52;7.57;;;4.50;;
3718;SDS011;1875;52.492;6.860;2023-03-01T10:34:22;4.93;;;3.67;;
3718;SDS011;1875;52.492;6.860;2023-03-01T10:36:57;6.37;;;3.90;;
3718;SDS011;1875;52.492;6.860;2023-03-01T10:39:25;7.47;;;4.23;;
3718;SDS011;1875;52.492;6.860;2023-03-01T10:41:55;6.97;;;4.47;;
3718;SDS011;1875;52.492;6.860;2023-03-01T10:47:19;9.10;;;4.97;;
3718;SDS011;1875;52.492;6.860;2023-03-01T10:49:55;5.03;;;3.70;;
3718;SDS011;1875;52.492;6.860;2023-03-01T10:52:28;8.47;;;4.40;;
3718;SDS011;1875;52.492;6.860;2023-03-01T10:54:58;9.50;;;5.50;;
3718;SDS011;1875;52.492;6.860;2023-03-01T10:57:31;5.23;;;3.60;;
3718;SDS011;1875;52.492;6.860;2023-03-01T11:03:10;5.73;;;4.00;;
3718;SDS011;1875;52.492;6.860;2023-03-01T11:05:49;7.03;;;3.67;;
3718;SDS011;1875;52.492;6.860;2023-03-01T11:08:30;18.27;;;8.97;;
3718;SDS011;1875;52.492;6.860;2023-03-01T11:11:06;7.37;;;3.47;;
3718;SDS011;1875;52.492;6.860;2023-03-01T11:13:47;15.33;;;5.10;;
3718;SDS011;1875;52.492;6.860;2023-03-01T11:16:22;6.63;;;3.10;;
3718;SDS011;1875;52.492;6.860;2023-03-01T11:18:59;7.53;;;4.33;;
3718;SDS011;1875;52.492;6.860;2023-03-01T11:21:32;6.30;;;3.70;;
3718;SDS011;1875;52.492;6.860;2023-03-01T11:24:03;7.17;;;3.20;;
3718;SDS011;1875;52.492;6.860;2023-03-01T11:26:34;7.03;;;3.50;;
3718;SDS011;1875;52.492;6.860;2023-03-01T11:29:06;6.27;;;4.20;;
3718;SDS011;1875;52.492;6.860;2023-03-01T11:31:40;5.63;;;3.07;;
3718;SDS011;1875;52.492;6.860;2023-03-01T11:34:23;8.80;;;3.93;;
3718;SDS011;1875;52.492;6.860;2023-03-01T11:36:59;5.17;;;3.47;;
3718;SDS011;1875;52.492;6.860;2023-03-01T11:39:32;4.67;;;3.03;;
3718;SDS011;1875;52.492;6.860;2023-03-01T11:42:05;5.70;;;2.90;;
3718;SDS011;1875;52.492;6.860;2023-03-01T11:44:44;5.33;;;2.90;;
3718;SDS011;1875;52.492;6.860;2023-03-01T11:47:21;6.43;;;3.63;;
3718;SDS011;1875;52.492;6.860;2023-03-01T11:50:02;8.20;;;3.90;;
3718;SDS011;1875;52.492;6.860;2023-03-01T11:52:37;5.83;;;3.43;;
3718;SDS011;1875;52.492;6.860;2023-03-01T11:55:21;6.40;;;4.17;;
3718;SDS011;1875;52.492;6.860;2023-03-01T11:58:03;6.50;;;3.73;;
3718;SDS011;1875;52.492;6.860;2023-03-01T12:03:33;6.40;;;3.83;;
3718;SDS011;1875;52.492;6.860;2023-03-01T12:09:02;8.97;;;4.87;;
3718;SDS011;1875;52.492;6.860;2023-03-01T12:11:41;5.80;;;3.37;;
3718;SDS011;1875;52.492;6.860;2023-03-01T12:14:20;6.80;;;4.17;;
3718;SDS011;1875;52.492;6.860;2023-03-01T12:17:02;8.37;;;4.63;;
3718;SDS011;1875;52.492;6.860;2023-03-01T12:20:01;8.87;;;5.70;;
3718;SDS011;1875;52.492;6.860;2023-03-01T12:22:37;7.40;;;4.87;;
3718;SDS011;1875;52.492;6.860;2023-03-01T12:25:21;7.37;;;4.40;;
3718;SDS011;1875;52.492;6.860;2023-03-01T12:31:21;6.20;;;4.00;;
3718;SDS011;1875;52.492;6.860;2023-03-01T12:34:08;4.77;;;3.60;;
3718;SDS011;1875;52.492;6.860;2023-03-01T12:36:46;16.10;;;4.73;;
3718;SDS011;1875;52.492;6.860;2023-03-01T12:39:24;6.07;;;3.70;;
3718;SDS011;1875;52.492;6.860;2023-03-01T12:42:03;7.37;;;3.80;;
3718;SDS011;1875;52.492;6.860;2023-03-01T12:44:38;10.77;;;3.90;;
3718;SDS011;1875;52.492;6.860;2023-03-01T12:47:20;6.90;;;4.30;;
3718;SDS011;1875;52.492;6.860;2023-03-01T12:49:54;9.30;;;4.30;;
3718;SDS011;1875;52.492;6.860;2023-03-01T12:52:27;4.93;;;2.93;;
3718;SDS011;1875;52.492;6.860;2023-03-01T12:55:02;6.70;;;4.20;;
3718;SDS011;1875;52.492;6.860;2023-03-01T12:57:37;7.17;;;3.93;;
3718;SDS011;1875;52.492;6.860;2023-03-01T13:00:18;5.00;;;3.47;;
3718;SDS011;1875;52.492;6.860;2023-03-01T13:02:55;6.13;;;3.60;;
3718;SDS011;1875;52.492;6.860;2023-03-01T13:05:29;6.20;;;3.27;;
3718;SDS011;1875;52.492;6.860;2023-03-01T13:08:05;5.60;;;3.73;;
3718;SDS011;1875;52.492;6.860;2023-03-01T13:10:39;5.83;;;3.57;;
3718;SDS011;1875;52.492;6.860;2023-03-01T13:13:13;4.73;;;3.33;;
3718;SDS011;1875;52.492;6.860;2023-03-01T13:15:47;6.03;;;4.40;;
3718;SDS011;1875;52.492;6.860;2023-03-01T13:18:27;7.97;;;3.57;;
3718;SDS011;1875;52.492;6.860;2023-03-01T13:21:02;6.73;;;3.97;;
3718;SDS011;1875;52.492;6.860;2023-03-01T13:23:33;8.57;;;3.73;;
3718;SDS011;1875;52.492;6.860;2023-03-01T13:26:04;3.93;;;3.10;;
3718;SDS011;1875;52.492;6.860;2023-03-01T13:37:21;6.20;;;4.17;;
3718;SDS011;1875;52.492;6.860;2023-03-01T13:39:56;6.67;;;3.70;;
3718;SDS011;1875;52.492;6.860;2023-03-01T13:42:29;5.03;;;3.80;;
3718;SDS011;1875;52.492;6.860;2023-03-01T13:45:04;6.50;;;3.10;;
3718;SDS011;1875;52.492;6.860;2023-03-01T13:47:43;6.17;;;3.97;;
3718;SDS011;1875;52.492;6.860;2023-03-01T13:50:16;6.57;;;3.50;;
3718;SDS011;1875;52.492;6.860;2023-03-01T13:52:49;4.87;;;3.40;;
3718;SDS011;1875;52.492;6.860;2023-03-01T13:55:19;3.90;;;2.93;;
3718;SDS011;1875;52.492;6.860;2023-03-01T13:57:49;5.37;;;3.27;;
3718;SDS011;1875;52.492;6.860;2023-03-01T14:00:33;5.70;;;3.83;;
3718;SDS011;1875;52.492;6.860;2023-03-01T14:03:05;7.63;;;3.80;;
3718;SDS011;1875;52.492;6.860;2023-03-01T14:05:36;6.13;;;3.47;;
3718;SDS011;1875;52.492;6.860;2023-03-01T14:08:05;9.67;;;3.43;;
3718;SDS011;1875;52.492;6.860;2023-03-01T14:10:42;7.73;;;4.10;;
3718;SDS011;1875;52.492;6.860;2023-03-01T14:13:33;5.10;;;3.67;;
3718;SDS011;1875;52.492;6.860;2023-03-01T14:16:17;7.90;;;3.97;;
3718;SDS011;1875;52.492;6.860;2023-03-01T14:18:54;5.77;;;3.63;;
3718;SDS011;1875;52.492;6.860;2023-03-01T14:21:27;6.33;;;3.43;;
3718;SDS011;1875;52.492;6.860;2023-03-01T14:23:56;10.03;;;3.47;;
3718;SDS011;1875;52.492;6.860;2023-03-01T14:26:25;7.70;;;4.27;;
3718;SDS011;1875;52.492;6.860;2023-03-01T14:28:52;9.40;;;4.50;;
3718;SDS011;1875;52.492;6.860;2023-03-01T14:31:31;7.83;;;3.53;;
3718;SDS011;1875;52.492;6.860;2023-03-01T14:34:20;6.30;;;4.00;;
3718;SDS011;1875;52.492;6.860;2023-03-01T14:36:49;6.37;;;3.87;;
3718;SDS011;1875;52.492;6.860;2023-03-01T14:39:17;4.47;;;2.80;;
3718;SDS011;1875;52.492;6.860;2023-03-01T14:41:47;5.27;;;3.27;;
3718;SDS011;1875;52.492;6.860;2023-03-01T14:44:16;4.20;;;3.27;;
3718;SDS011;1875;52.492;6.860;2023-03-01T14:46:51;6.20;;;3.47;;
3718;SDS011;1875;52.492;6.860;2023-03-01T14:49:22;7.47;;;4.03;;
3718;SDS011;1875;52.492;6.860;2023-03-01T14:51:52;7.83;;;4.20;;
3718;SDS011;1875;52.492;6.860;2023-03-01T14:54:21;5.53;;;3.70;;
3718;SDS011;1875;52.492;6.860;2023-03-01T14:56:52;7.07;;;3.87;;
3718;SDS011;1875;52.492;6.860;2023-03-01T14:59:21;8.67;;;3.80;;
3718;SDS011;1875;52.492;6.860;2023-03-01T15:01:49;6.30;;;4.20;;
3718;SDS011;1875;52.492;6.860;2023-03-01T15:04:18;9.17;;;4.13;;
3718;SDS011;1875;52.492;6.860;2023-03-01T15:06:49;4.63;;;3.60;;
3718;SDS011;1875;52.492;6.860;2023-03-01T15:09:18;9.07;;;4.00;;
3718;SDS011;1875;52.492;6.860;2023-03-01T15:11:46;6.00;;;3.93;;
3718;SDS011;1875;52.492;6.860;2023-03-01T15:14:27;7.67;;;4.23;;
3718;SDS011;1875;52.492;6.860;2023-03-01T15:16:55;7.70;;;4.60;;
3718;SDS011;1875;52.492;6.860;2023-03-01T15:19:24;8.27;;;3.87;;
3718;SDS011;1875;52.492;6.860;2023-03-01T15:21:56;7.13;;;4.37;;
3718;SDS011;1875;52.492;6.860;2023-03-01T15:24:25;7.70;;;4.93;;
3718;SDS011;1875;52.492;6.860;2023-03-01T15:26:56;9.87;;;4.80;;
3718;SDS011;1875;52.492;6.860;2023-03-01T15:29:28;7.03;;;3.80;;
3718;SDS011;1875;52.492;6.860;2023-03-01T15:32:00;5.57;;;3.77;;
3718;SDS011;1875;52.492;6.860;2023-03-01T15:34:30;8.23;;;4.67;;
3718;SDS011;1875;52.492;6.860;2023-03-01T15:37:01;6.73;;;4.13;;
3718;SDS011;1875;52.492;6.860;2023-03-01T15:39:33;7.83;;;5.10;;
3718;SDS011;1875;52.492;6.860;2023-03-01T15:42:05;9.50;;;5.20;;
3718;SDS011;1875;52.492;6.860;2023-03-01T15:44:34;7.83;;;4.63;;
3718;SDS011;1875;52.492;6.860;2023-03-01T15:47:22;7.10;;;4.87;;
3718;SDS011;1875;52.492;6.860;2023-03-01T15:49:52;5.87;;;4.40;;
3718;SDS011;1875;52.492;6.860;2023-03-01T15:52:23;11.00;;;5.73;;
3718;SDS011;1875;52.492;6.860;2023-03-01T15:54:56;8.43;;;5.03;;
3718;SDS011;1875;52.492;6.860;2023-03-01T15:57:24;8.77;;;5.43;;